sensor_id;sensor_type;location;lat;lon;timestamp;temperature;humidity
59855;DHT22;45732;52.850;6.896;2022-09-09T00:01:23;15.20;99.90
59855;DHT22;45732;52.850;6.896;2022-09-09T00:09:17;15.10;99.90
59855;DHT22;45732;52.850;6.896;2022-09-09T00:11:47;14.90;99.90
59855;DHT22;45732;52.850;6.896;2022-09-09T00:14:21;14.90;99.90
59855;DHT22;45732;52.850;6.896;2022-09-09T00:16:58;14.90;99.90
59855;DHT22;45732;52.850;6.896;2022-09-09T00:24:32;14.90;99.90
59855;DHT22;45732;52.850;6.896;2022-09-09T00:27:08;14.90;99.90
59855;DHT22;45732;52.850;6.896;2022-09-09T00:32:16;15.00;99.90
59855;DHT22;45732;52.850;6.896;2022-09-09T00:34:51;15.00;99.90
59855;DHT22;45732;52.850;6.896;2022-09-09T00:37:19;14.90;99.90
59855;DHT22;45732;52.850;6.896;2022-09-09T00:39:47;14.90;99.90
59855;DHT22;45732;52.850;6.896;2022-09-09T00:44:52;14.90;99.90
59855;DHT22;45732;52.850;6.896;2022-09-09T00:55:56;15.00;99.90
59855;DHT22;45732;52.850;6.896;2022-09-09T00:58:23;15.00;99.90
59855;DHT22;45732;52.850;6.896;2022-09-09T01:01:02;15.10;99.90
59855;DHT22;45732;52.850;6.896;2022-09-09T01:03:55;15.10;99.90
59855;DHT22;45732;52.850;6.896;2022-09-09T01:06:35;15.10;99.90
59855;DHT22;45732;52.850;6.896;2022-09-09T01:09:10;15.20;99.90
59855;DHT22;45732;52.850;6.896;2022-09-09T01:17:23;15.20;99.90
59855;DHT22;45732;52.850;6.896;2022-09-09T01:27:40;15.30;99.90
59855;DHT22;45732;52.850;6.896;2022-09-09T01:30:14;15.30;99.90
59855;DHT22;45732;52.850;6.896;2022-09-09T01:35:39;15.40;99.90
59855;DHT22;45732;52.850;6.896;2022-09-09T01:38:07;15.40;99.90
59855;DHT22;45732;52.850;6.896;2022-09-09T01:40:33;15.40;99.90
59855;DHT22;45732;52.850;6.896;2022-09-09T01:42:58;15.40;99.90
59855;DHT22;45732;52.850;6.896;2022-09-09T01:45:24;15.40;99.90
59855;DHT22;45732;52.850;6.896;2022-09-09T01:47:52;15.40;99.90
59855;DHT22;45732;52.850;6.896;2022-09-09T01:50:19;15.30;99.90
59855;DHT22;45732;52.850;6.896;2022-09-09T01:52:47;15.30;99.90
59855;DHT22;45732;52.850;6.896;2022-09-09T01:55:15;15.20;99.90
59855;DHT22;45732;52.850;6.896;2022-09-09T02:00:34;15.20;99.90
59855;DHT22;45732;52.850;6.896;2022-09-09T02:03:18;15.20;99.90
59855;DHT22;45732;52.850;6.896;2022-09-09T02:06:05;15.20;99.90
59855;DHT22;45732;52.850;6.896;2022-09-09T02:08:49;15.20;99.90
59855;DHT22;45732;52.850;6.896;2022-09-09T02:11:17;15.20;99.90
59855;DHT22;45732;52.850;6.896;2022-09-09T02:13:46;15.20;99.90
59855;DHT22;45732;52.850;6.896;2022-09-09T02:16:13;15.20;99.90
59855;DHT22;45732;52.850;6.896;2022-09-09T02:21:17;15.20;99.90
59855;DHT22;45732;52.850;6.896;2022-09-09T02:23:44;15.30;99.90
59855;DHT22;45732;52.850;6.896;2022-09-09T02:26:13;15.30;99.90
59855;DHT22;45732;52.850;6.896;2022-09-09T02:28:46;15.20;99.90
59855;DHT22;45732;52.850;6.896;2022-09-09T02:31:13;15.20;99.90
59855;DHT22;45732;52.850;6.896;2022-09-09T02:33:44;15.20;99.90
59855;DHT22;45732;52.850;6.896;2022-09-09T02:36:12;15.20;99.90
59855;DHT22;45732;52.850;6.896;2022-09-09T02:38:46;15.20;99.90
59855;DHT22;45732;52.850;6.896;2022-09-09T02:41:49;15.20;99.90
59855;DHT22;45732;52.850;6.896;2022-09-09T02:44:15;15.20;99.90
59855;DHT22;45732;52.850;6.896;2022-09-09T02:55:06;15.20;99.90
59855;DHT22;45732;52.850;6.896;2022-09-09T02:57:34;15.10;99.90
59855;DHT22;45732;52.850;6.896;2022-09-09T03:00:00;15.10;99.90
59855;DHT22;45732;52.850;6.896;2022-09-09T03:02:27;15.20;99.90
59855;DHT22;45732;52.850;6.896;2022-09-09T03:04:52;15.10;99.90
59855;DHT22;45732;52.850;6.896;2022-09-09T03:07:19;15.10;99.90
59855;DHT22;45732;52.850;6.896;2022-09-09T03:09:45;15.10;99.90
59855;DHT22;45732;52.850;6.896;2022-09-09T03:12:13;15.10;99.90
59855;DHT22;45732;52.850;6.896;2022-09-09T03:14:47;15.10;99.90
59855;DHT22;45732;52.850;6.896;2022-09-09T03:17:13;15.10;99.90
59855;DHT22;45732;52.850;6.896;2022-09-09T03:19:39;15.10;99.90
59855;DHT22;45732;52.850;6.896;2022-09-09T03:22:05;15.10;99.90
59855;DHT22;45732;52.850;6.896;2022-09-09T03:24:30;15.10;99.90
59855;DHT22;45732;52.850;6.896;2022-09-09T03:26:56;15.10;99.90
59855;DHT22;45732;52.850;6.896;2022-09-09T03:29:22;15.20;99.90
59855;DHT22;45732;52.850;6.896;2022-09-09T03:31:48;15.10;99.90
59855;DHT22;45732;52.850;6.896;2022-09-09T03:34:14;15.10;99.90
59855;DHT22;45732;52.850;6.896;2022-09-09T03:36:39;15.10;99.90
59855;DHT22;45732;52.850;6.896;2022-09-09T03:39:06;15.10;99.90
59855;DHT22;45732;52.850;6.896;2022-09-09T03:41:32;15.10;99.90
59855;DHT22;45732;52.850;6.896;2022-09-09T03:43:59;15.10;99.90
59855;DHT22;45732;52.850;6.896;2022-09-09T03:46:25;15.10;99.90
59855;DHT22;45732;52.850;6.896;2022-09-09T03:48:51;15.10;99.90
59855;DHT22;45732;52.850;6.896;2022-09-09T03:51:20;15.10;99.90
59855;DHT22;45732;52.850;6.896;2022-09-09T03:53:47;15.10;99.90
59855;DHT22;45732;52.850;6.896;2022-09-09T03:56:13;15.10;99.90
59855;DHT22;45732;52.850;6.896;2022-09-09T03:58:38;15.10;99.90
59855;DHT22;45732;52.850;6.896;2022-09-09T04:01:07;15.00;99.90
59855;DHT22;45732;52.850;6.896;2022-09-09T04:03:36;15.00;99.90
59855;DHT22;45732;52.850;6.896;2022-09-09T04:06:04;15.00;99.90
59855;DHT22;45732;52.850;6.896;2022-09-09T04:08:30;15.10;99.90
59855;DHT22;45732;52.850;6.896;2022-09-09T04:11:01;15.00;99.90
59855;DHT22;45732;52.850;6.896;2022-09-09T04:13:30;15.00;99.90
59855;DHT22;45732;52.850;6.896;2022-09-09T04:15:58;15.00;99.90
59855;DHT22;45732;52.850;6.896;2022-09-09T04:18:25;15.10;99.90
59855;DHT22;45732;52.850;6.896;2022-09-09T04:20:52;15.00;99.90
59855;DHT22;45732;52.850;6.896;2022-09-09T04:23:18;15.00;99.90
59855;DHT22;45732;52.850;6.896;2022-09-09T04:25:46;15.00;99.90
59855;DHT22;45732;52.850;6.896;2022-09-09T04:28:13;15.00;99.90
59855;DHT22;45732;52.850;6.896;2022-09-09T04:30:39;15.00;99.90
59855;DHT22;45732;52.850;6.896;2022-09-09T04:33:06;15.00;99.90
59855;DHT22;45732;52.850;6.896;2022-09-09T04:35:32;15.00;99.90
59855;DHT22;45732;52.850;6.896;2022-09-09T04:37:58;15.00;99.90
59855;DHT22;45732;52.850;6.896;2022-09-09T04:40:24;15.10;99.90
59855;DHT22;45732;52.850;6.896;2022-09-09T04:42:50;15.00;99.90
59855;DHT22;45732;52.850;6.896;2022-09-09T04:45:17;15.10;99.90
59855;DHT22;45732;52.850;6.896;2022-09-09T04:47:43;15.10;99.90
59855;DHT22;45732;52.850;6.896;2022-09-09T04:50:09;15.10;99.90
59855;DHT22;45732;52.850;6.896;2022-09-09T04:52:35;15.10;99.90
59855;DHT22;45732;52.850;6.896;2022-09-09T04:55:01;15.10;99.90
59855;DHT22;45732;52.850;6.896;2022-09-09T04:57:27;15.10;99.90
59855;DHT22;45732;52.850;6.896;2022-09-09T04:59:54;15.20;99.90
59855;DHT22;45732;52.850;6.896;2022-09-09T05:02:20;15.10;99.90
59855;DHT22;45732;52.850;6.896;2022-09-09T05:04:45;15.10;99.90
59855;DHT22;45732;52.850;6.896;2022-09-09T05:07:11;15.10;99.90
59855;DHT22;45732;52.850;6.896;2022-09-09T05:09:37;15.10;99.90
59855;DHT22;45732;52.850;6.896;2022-09-09T05:12:02;15.10;99.90
59855;DHT22;45732;52.850;6.896;2022-09-09T05:14:28;15.10;99.90
59855;DHT22;45732;52.850;6.896;2022-09-09T05:16:55;15.10;99.90
59855;DHT22;45732;52.850;6.896;2022-09-09T05:19:21;15.10;99.90
59855;DHT22;45732;52.850;6.896;2022-09-09T05:21:47;15.10;99.90
59855;DHT22;45732;52.850;6.896;2022-09-09T05:24:13;15.10;99.90
59855;DHT22;45732;52.850;6.896;2022-09-09T05:26:38;15.10;99.90
59855;DHT22;45732;52.850;6.896;2022-09-09T05:29:04;15.10;99.90
59855;DHT22;45732;52.850;6.896;2022-09-09T05:31:31;15.10;99.90
59855;DHT22;45732;52.850;6.896;2022-09-09T05:33:58;15.20;99.90
59855;DHT22;45732;52.850;6.896;2022-09-09T05:36:24;15.10;99.90
59855;DHT22;45732;52.850;6.896;2022-09-09T05:38:50;15.20;99.90
59855;DHT22;45732;52.850;6.896;2022-09-09T05:41:17;15.20;99.90
59855;DHT22;45732;52.850;6.896;2022-09-09T05:43:43;15.20;99.90
59855;DHT22;45732;52.850;6.896;2022-09-09T05:46:18;15.20;99.90
59855;DHT22;45732;52.850;6.896;2022-09-09T05:48:45;15.20;99.90
59855;DHT22;45732;52.850;6.896;2022-09-09T05:51:17;15.20;99.90
59855;DHT22;45732;52.850;6.896;2022-09-09T05:53:44;15.20;99.90
59855;DHT22;45732;52.850;6.896;2022-09-09T05:56:11;15.20;99.90
59855;DHT22;45732;52.850;6.896;2022-09-09T05:58:38;15.20;99.90
59855;DHT22;45732;52.850;6.896;2022-09-09T06:01:11;15.20;99.90
59855;DHT22;45732;52.850;6.896;2022-09-09T06:03:37;15.20;99.90
59855;DHT22;45732;52.850;6.896;2022-09-09T06:06:08;15.20;99.90
59855;DHT22;45732;52.850;6.896;2022-09-09T06:08:35;15.30;99.90
59855;DHT22;45732;52.850;6.896;2022-09-09T06:11:15;15.30;99.90
59855;DHT22;45732;52.850;6.896;2022-09-09T06:13:42;15.40;99.90
59855;DHT22;45732;52.850;6.896;2022-09-09T06:16:10;15.40;99.90
59855;DHT22;45732;52.850;6.896;2022-09-09T06:18:40;15.40;99.90
59855;DHT22;45732;52.850;6.896;2022-09-09T06:21:09;15.40;99.90
59855;DHT22;45732;52.850;6.896;2022-09-09T06:23:36;15.50;99.90
59855;DHT22;45732;52.850;6.896;2022-09-09T06:26:17;15.50;99.90
59855;DHT22;45732;52.850;6.896;2022-09-09T06:28:45;15.50;99.90
59855;DHT22;45732;52.850;6.896;2022-09-09T06:31:12;15.60;99.90
59855;DHT22;45732;52.850;6.896;2022-09-09T06:33:40;15.50;99.90
59855;DHT22;45732;52.850;6.896;2022-09-09T06:36:14;15.50;99.90
59855;DHT22;45732;52.850;6.896;2022-09-09T06:38:43;15.50;99.90
59855;DHT22;45732;52.850;6.896;2022-09-09T06:41:11;15.60;99.90
59855;DHT22;45732;52.850;6.896;2022-09-09T06:43:37;15.60;99.90
59855;DHT22;45732;52.850;6.896;2022-09-09T06:46:06;15.60;99.90
59855;DHT22;45732;52.850;6.896;2022-09-09T06:48:33;15.60;99.90
59855;DHT22;45732;52.850;6.896;2022-09-09T06:51:03;15.70;99.90
59855;DHT22;45732;52.850;6.896;2022-09-09T06:53:29;15.70;99.90
59855;DHT22;45732;52.850;6.896;2022-09-09T06:55:54;15.70;99.90
59855;DHT22;45732;52.850;6.896;2022-09-09T06:58:20;15.70;99.90
59855;DHT22;45732;52.850;6.896;2022-09-09T07:00:49;15.70;99.90
59855;DHT22;45732;52.850;6.896;2022-09-09T07:03:15;15.70;99.90
59855;DHT22;45732;52.850;6.896;2022-09-09T07:05:40;15.70;99.90
59855;DHT22;45732;52.850;6.896;2022-09-09T07:08:06;15.70;99.90
59855;DHT22;45732;52.850;6.896;2022-09-09T07:10:32;15.80;99.90
59855;DHT22;45732;52.850;6.896;2022-09-09T07:12:59;15.80;99.90
59855;DHT22;45732;52.850;6.896;2022-09-09T07:15:25;15.80;99.90
59855;DHT22;45732;52.850;6.896;2022-09-09T07:17:51;15.80;99.90
59855;DHT22;45732;52.850;6.896;2022-09-09T07:20:19;15.80;99.90
59855;DHT22;45732;52.850;6.896;2022-09-09T07:22:45;15.90;99.90
59855;DHT22;45732;52.850;6.896;2022-09-09T07:25:11;16.00;99.90
59855;DHT22;45732;52.850;6.896;2022-09-09T07:27:37;16.00;99.90
59855;DHT22;45732;52.850;6.896;2022-09-09T07:30:03;16.10;99.90
59855;DHT22;45732;52.850;6.896;2022-09-09T07:32:29;16.10;99.90
59855;DHT22;45732;52.850;6.896;2022-09-09T07:34:56;16.20;99.90
59855;DHT22;45732;52.850;6.896;2022-09-09T07:37:23;16.30;99.90
59855;DHT22;45732;52.850;6.896;2022-09-09T07:39:49;16.30;99.90
59855;DHT22;45732;52.850;6.896;2022-09-09T07:42:16;16.40;99.90
59855;DHT22;45732;52.850;6.896;2022-09-09T07:44:42;16.40;99.90
59855;DHT22;45732;52.850;6.896;2022-09-09T07:47:07;16.50;99.90
59855;DHT22;45732;52.850;6.896;2022-09-09T07:49:34;16.50;99.90
59855;DHT22;45732;52.850;6.896;2022-09-09T07:52:00;16.60;99.90
59855;DHT22;45732;52.850;6.896;2022-09-09T07:54:25;16.70;99.90
59855;DHT22;45732;52.850;6.896;2022-09-09T07:56:52;16.70;99.90
59855;DHT22;45732;52.850;6.896;2022-09-09T07:59:18;16.80;99.90
59855;DHT22;45732;52.850;6.896;2022-09-09T08:01:49;16.90;99.90
59855;DHT22;45732;52.850;6.896;2022-09-09T08:04:19;16.90;99.90
59855;DHT22;45732;52.850;6.896;2022-09-09T08:06:56;16.90;99.90
59855;DHT22;45732;52.850;6.896;2022-09-09T08:09:23;17.00;99.90
59855;DHT22;45732;52.850;6.896;2022-09-09T08:11:54;17.00;99.90
59855;DHT22;45732;52.850;6.896;2022-09-09T08:14:22;17.00;99.90
59855;DHT22;45732;52.850;6.896;2022-09-09T08:16:49;17.10;99.90
59855;DHT22;45732;52.850;6.896;2022-09-09T08:19:15;17.10;99.90
59855;DHT22;45732;52.850;6.896;2022-09-09T08:21:42;17.20;99.90
59855;DHT22;45732;52.850;6.896;2022-09-09T08:24:09;17.20;99.90
59855;DHT22;45732;52.850;6.896;2022-09-09T08:26:42;17.20;99.90
59855;DHT22;45732;52.850;6.896;2022-09-09T08:29:10;17.30;99.90
59855;DHT22;45732;52.850;6.896;2022-09-09T08:31:39;17.40;99.90
59855;DHT22;45732;52.850;6.896;2022-09-09T08:34:06;17.40;99.90
59855;DHT22;45732;52.850;6.896;2022-09-09T08:36:40;17.40;99.90
59855;DHT22;45732;52.850;6.896;2022-09-09T08:39:09;17.50;99.90
59855;DHT22;45732;52.850;6.896;2022-09-09T08:52:28;17.60;99.90
59855;DHT22;45732;52.850;6.896;2022-09-09T08:54:59;17.70;99.90
59855;DHT22;45732;52.850;6.896;2022-09-09T08:57:28;17.70;99.90
59855;DHT22;45732;52.850;6.896;2022-09-09T08:59:57;17.70;99.90
59855;DHT22;45732;52.850;6.896;2022-09-09T09:05:37;17.70;99.90
59855;DHT22;45732;52.850;6.896;2022-09-09T09:08:24;17.70;99.90
59855;DHT22;45732;52.850;6.896;2022-09-09T09:10:54;17.80;99.90
59855;DHT22;45732;52.850;6.896;2022-09-09T09:14:10;17.80;99.90
59855;DHT22;45732;52.850;6.896;2022-09-09T09:19:14;17.70;99.90
59855;DHT22;45732;52.850;6.896;2022-09-09T09:21:42;17.70;99.90
59855;DHT22;45732;52.850;6.896;2022-09-09T09:24:18;17.80;99.90
59855;DHT22;45732;52.850;6.896;2022-09-09T09:26:44;17.90;99.90
59855;DHT22;45732;52.850;6.896;2022-09-09T09:29:16;17.90;99.90
59855;DHT22;45732;52.850;6.896;2022-09-09T09:31:47;17.90;99.90
59855;DHT22;45732;52.850;6.896;2022-09-09T09:34:14;17.90;99.90
59855;DHT22;45732;52.850;6.896;2022-09-09T09:36:46;18.00;99.90
59855;DHT22;45732;52.850;6.896;2022-09-09T09:39:31;18.10;99.90
59855;DHT22;45732;52.850;6.896;2022-09-09T09:42:28;18.10;99.90
59855;DHT22;45732;52.850;6.896;2022-09-09T09:44:53;18.10;99.90
59855;DHT22;45732;52.850;6.896;2022-09-09T09:47:21;18.20;99.90
59855;DHT22;45732;52.850;6.896;2022-09-09T09:49:58;18.30;99.90
59855;DHT22;45732;52.850;6.896;2022-09-09T09:52:30;18.30;99.90
59855;DHT22;45732;52.850;6.896;2022-09-09T09:54:57;18.30;99.90
59855;DHT22;45732;52.850;6.896;2022-09-09T09:57:27;18.30;99.90
59855;DHT22;45732;52.850;6.896;2022-09-09T10:02:38;18.40;99.90
59855;DHT22;45732;52.850;6.896;2022-09-09T10:05:26;18.50;99.90
59855;DHT22;45732;52.850;6.896;2022-09-09T10:08:08;18.50;99.90
59855;DHT22;45732;52.850;6.896;2022-09-09T10:10:57;18.60;99.90
59855;DHT22;45732;52.850;6.896;2022-09-09T10:13:29;18.70;99.90
59855;DHT22;45732;52.850;6.896;2022-09-09T10:27:27;18.80;99.90
59855;DHT22;45732;52.850;6.896;2022-09-09T10:35:21;18.90;99.90
59855;DHT22;45732;52.850;6.896;2022-09-09T10:40:32;18.80;99.90
59855;DHT22;45732;52.850;6.896;2022-09-09T10:50:59;19.20;99.90
59855;DHT22;45732;52.850;6.896;2022-09-09T10:56:07;19.40;99.90
59855;DHT22;45732;52.850;6.896;2022-09-09T11:01:18;19.40;99.90
59855;DHT22;45732;52.850;6.896;2022-09-09T11:03:54;19.40;99.90
59855;DHT22;45732;52.850;6.896;2022-09-09T11:06:28;19.40;99.90
59855;DHT22;45732;52.850;6.896;2022-09-09T11:08:56;19.50;99.90
59855;DHT22;45732;52.850;6.896;2022-09-09T11:11:52;19.40;99.90
59855;DHT22;45732;52.850;6.896;2022-09-09T11:14:43;19.30;99.90
59855;DHT22;45732;52.850;6.896;2022-09-09T11:17:18;19.30;99.90
59855;DHT22;45732;52.850;6.896;2022-09-09T11:19:44;19.30;99.90
59855;DHT22;45732;52.850;6.896;2022-09-09T11:25:23;19.50;99.90
59855;DHT22;45732;52.850;6.896;2022-09-09T11:41:36;19.50;99.90
59855;DHT22;45732;52.850;6.896;2022-09-09T11:44:17;19.50;99.90
59855;DHT22;45732;52.850;6.896;2022-09-09T11:46:46;19.70;99.90
59855;DHT22;45732;52.850;6.896;2022-09-09T11:49:42;19.70;99.90
59855;DHT22;45732;52.850;6.896;2022-09-09T11:52:40;19.70;99.90
59855;DHT22;45732;52.850;6.896;2022-09-09T11:55:10;19.90;99.90
59855;DHT22;45732;52.850;6.896;2022-09-09T11:57:38;19.90;99.90
59855;DHT22;45732;52.850;6.896;2022-09-09T12:00:05;20.00;99.90
59855;DHT22;45732;52.850;6.896;2022-09-09T12:02:31;20.00;99.90
59855;DHT22;45732;52.850;6.896;2022-09-09T12:05:12;20.10;99.90
59855;DHT22;45732;52.850;6.896;2022-09-09T12:07:49;20.10;99.90
59855;DHT22;45732;52.850;6.896;2022-09-09T12:10:26;20.10;99.90
59855;DHT22;45732;52.850;6.896;2022-09-09T12:12:52;20.10;99.90
59855;DHT22;45732;52.850;6.896;2022-09-09T12:15:23;20.10;99.90
59855;DHT22;45732;52.850;6.896;2022-09-09T12:17:53;20.00;99.90
59855;DHT22;45732;52.850;6.896;2022-09-09T12:20:34;19.90;99.90
59855;DHT22;45732;52.850;6.896;2022-09-09T12:33:18;20.10;99.90
59855;DHT22;45732;52.850;6.896;2022-09-09T12:35:47;20.10;99.90
59855;DHT22;45732;52.850;6.896;2022-09-09T12:38:31;20.00;99.90
59855;DHT22;45732;52.850;6.896;2022-09-09T12:40:58;20.00;99.90
59855;DHT22;45732;52.850;6.896;2022-09-09T12:43:25;20.00;99.90
59855;DHT22;45732;52.850;6.896;2022-09-09T12:45:55;19.90;99.90
59855;DHT22;45732;52.850;6.896;2022-09-09T12:48:29;19.90;99.90
59855;DHT22;45732;52.850;6.896;2022-09-09T12:50:56;19.90;99.90
59855;DHT22;45732;52.850;6.896;2022-09-09T12:53:30;20.00;99.90
59855;DHT22;45732;52.850;6.896;2022-09-09T12:56:00;20.10;99.90
59855;DHT22;45732;52.850;6.896;2022-09-09T12:58:28;20.00;99.90
59855;DHT22;45732;52.850;6.896;2022-09-09T13:00:59;20.00;99.90
59855;DHT22;45732;52.850;6.896;2022-09-09T13:03:26;20.10;99.90
59855;DHT22;45732;52.850;6.896;2022-09-09T13:05:53;20.20;99.90
59855;DHT22;45732;52.850;6.896;2022-09-09T13:08:20;20.10;99.90
59855;DHT22;45732;52.850;6.896;2022-09-09T13:11:01;20.10;99.90
59855;DHT22;45732;52.850;6.896;2022-09-09T13:13:29;20.00;99.90
59855;DHT22;45732;52.850;6.896;2022-09-09T13:15:59;20.00;99.90
59855;DHT22;45732;52.850;6.896;2022-09-09T13:18:36;20.00;99.90
59855;DHT22;45732;52.850;6.896;2022-09-09T13:21:03;20.00;99.90
59855;DHT22;45732;52.850;6.896;2022-09-09T13:23:34;20.00;99.90
59855;DHT22;45732;52.850;6.896;2022-09-09T13:26:04;20.00;99.90
59855;DHT22;45732;52.850;6.896;2022-09-09T13:28:32;20.00;99.90
59855;DHT22;45732;52.850;6.896;2022-09-09T13:31:18;19.90;99.90
59855;DHT22;45732;52.850;6.896;2022-09-09T13:33:45;19.70;99.90
59855;DHT22;45732;52.850;6.896;2022-09-09T13:36:11;19.40;99.90
59855;DHT22;45732;52.850;6.896;2022-09-09T13:41:36;19.30;99.90
59855;DHT22;45732;52.850;6.896;2022-09-09T13:44:19;19.30;99.90
59855;DHT22;45732;52.850;6.896;2022-09-09T13:47:20;19.30;99.90
59855;DHT22;45732;52.850;6.896;2022-09-09T13:49:45;19.40;99.90
59855;DHT22;45732;52.850;6.896;2022-09-09T13:52:16;19.40;99.90
59855;DHT22;45732;52.850;6.896;2022-09-09T13:54:49;19.50;99.90
59855;DHT22;45732;52.850;6.896;2022-09-09T13:57:25;19.50;99.90
59855;DHT22;45732;52.850;6.896;2022-09-09T13:59:52;19.50;99.90
59855;DHT22;45732;52.850;6.896;2022-09-09T14:02:18;19.50;99.90
59855;DHT22;45732;52.850;6.896;2022-09-09T14:04:44;19.50;99.90
59855;DHT22;45732;52.850;6.896;2022-09-09T14:07:15;19.60;99.90
59855;DHT22;45732;52.850;6.896;2022-09-09T14:09:42;19.60;99.90
59855;DHT22;45732;52.850;6.896;2022-09-09T14:12:11;19.70;99.90
59855;DHT22;45732;52.850;6.896;2022-09-09T14:14:37;19.70;99.90
59855;DHT22;45732;52.850;6.896;2022-09-09T14:17:04;19.70;99.90
59855;DHT22;45732;52.850;6.896;2022-09-09T14:19:30;19.60;99.90
59855;DHT22;45732;52.850;6.896;2022-09-09T14:21:57;19.60;99.90
59855;DHT22;45732;52.850;6.896;2022-09-09T14:24:23;19.30;99.90
59855;DHT22;45732;52.850;6.896;2022-09-09T14:26:49;19.10;99.90
59855;DHT22;45732;52.850;6.896;2022-09-09T14:29:14;18.90;99.90
59855;DHT22;45732;52.850;6.896;2022-09-09T14:31:40;18.50;99.90
59855;DHT22;45732;52.850;6.896;2022-09-09T14:34:05;18.20;99.90
59855;DHT22;45732;52.850;6.896;2022-09-09T14:36:31;18.00;99.90
59855;DHT22;45732;52.850;6.896;2022-09-09T14:38:57;17.80;99.90
59855;DHT22;45732;52.850;6.896;2022-09-09T14:41:24;17.70;99.90
59855;DHT22;45732;52.850;6.896;2022-09-09T14:43:50;17.60;99.90
59855;DHT22;45732;52.850;6.896;2022-09-09T14:46:18;17.60;99.90
59855;DHT22;45732;52.850;6.896;2022-09-09T14:48:45;17.60;99.90
59855;DHT22;45732;52.850;6.896;2022-09-09T14:51:22;17.60;99.90
59855;DHT22;45732;52.850;6.896;2022-09-09T14:53:51;17.60;99.90
59855;DHT22;45732;52.850;6.896;2022-09-09T14:56:19;17.70;99.90
59855;DHT22;45732;52.850;6.896;2022-09-09T14:58:46;17.80;99.90
59855;DHT22;45732;52.850;6.896;2022-09-09T15:01:15;18.00;99.90
59855;DHT22;45732;52.850;6.896;2022-09-09T15:03:43;18.20;99.90
59855;DHT22;45732;52.850;6.896;2022-09-09T15:06:14;18.40;99.90
59855;DHT22;45732;52.850;6.896;2022-09-09T15:08:44;18.60;99.90
59855;DHT22;45732;52.850;6.896;2022-09-09T15:11:11;18.80;99.90
59855;DHT22;45732;52.850;6.896;2022-09-09T15:13:39;19.00;99.90
59855;DHT22;45732;52.850;6.896;2022-09-09T15:16:13;19.20;99.90
59855;DHT22;45732;52.850;6.896;2022-09-09T15:18:39;19.30;99.90
59855;DHT22;45732;52.850;6.896;2022-09-09T15:21:12;19.40;99.90
59855;DHT22;45732;52.850;6.896;2022-09-09T15:23:39;19.40;99.90
59855;DHT22;45732;52.850;6.896;2022-09-09T15:26:05;19.40;99.90
59855;DHT22;45732;52.850;6.896;2022-09-09T15:28:32;19.40;99.90
59855;DHT22;45732;52.850;6.896;2022-09-09T15:31:27;19.60;99.90
59855;DHT22;45732;52.850;6.896;2022-09-09T15:33:53;19.70;99.90
59855;DHT22;45732;52.850;6.896;2022-09-09T15:36:24;19.80;99.90
59855;DHT22;45732;52.850;6.896;2022-09-09T15:38:51;19.80;99.90
59855;DHT22;45732;52.850;6.896;2022-09-09T15:41:18;19.70;99.90
59855;DHT22;45732;52.850;6.896;2022-09-09T15:43:48;19.60;99.90
59855;DHT22;45732;52.850;6.896;2022-09-09T15:48:49;19.90;99.90
59855;DHT22;45732;52.850;6.896;2022-09-09T15:51:16;20.00;99.90
59855;DHT22;45732;52.850;6.896;2022-09-09T15:53:42;20.10;99.90
59855;DHT22;45732;52.850;6.896;2022-09-09T15:56:09;20.10;99.90
59855;DHT22;45732;52.850;6.896;2022-09-09T15:58:35;20.00;99.90
59855;DHT22;45732;52.850;6.896;2022-09-09T16:01:06;19.80;99.90
59855;DHT22;45732;52.850;6.896;2022-09-09T16:03:37;19.70;99.90
59855;DHT22;45732;52.850;6.896;2022-09-09T16:06:04;19.60;99.90
59855;DHT22;45732;52.850;6.896;2022-09-09T16:08:34;19.50;99.90
59855;DHT22;45732;52.850;6.896;2022-09-09T16:11:10;19.30;99.90
59855;DHT22;45732;52.850;6.896;2022-09-09T16:13:38;19.30;99.90
59855;DHT22;45732;52.850;6.896;2022-09-09T16:16:08;19.10;99.90
59855;DHT22;45732;52.850;6.896;2022-09-09T16:18:41;19.10;99.90
59855;DHT22;45732;52.850;6.896;2022-09-09T16:21:11;19.00;99.90
59855;DHT22;45732;52.850;6.896;2022-09-09T16:23:38;19.00;99.90
59855;DHT22;45732;52.850;6.896;2022-09-09T16:26:04;19.00;99.90
59855;DHT22;45732;52.850;6.896;2022-09-09T16:28:30;19.00;99.90
59855;DHT22;45732;52.850;6.896;2022-09-09T16:30:56;19.10;99.90
59855;DHT22;45732;52.850;6.896;2022-09-09T16:33:23;19.10;99.90
59855;DHT22;45732;52.850;6.896;2022-09-09T16:35:51;19.20;99.90
59855;DHT22;45732;52.850;6.896;2022-09-09T16:38:16;19.10;99.90
59855;DHT22;45732;52.850;6.896;2022-09-09T16:40:42;19.10;99.90
59855;DHT22;45732;52.850;6.896;2022-09-09T16:43:08;19.00;99.90
59855;DHT22;45732;52.850;6.896;2022-09-09T16:45:44;19.10;99.90
59855;DHT22;45732;52.850;6.896;2022-09-09T16:48:11;19.00;99.90
59855;DHT22;45732;52.850;6.896;2022-09-09T16:50:37;18.90;99.90
59855;DHT22;45732;52.850;6.896;2022-09-09T16:53:04;19.00;99.90
59855;DHT22;45732;52.850;6.896;2022-09-09T16:55:38;18.90;99.90
59855;DHT22;45732;52.850;6.896;2022-09-09T16:58:04;18.90;99.90
59855;DHT22;45732;52.850;6.896;2022-09-09T17:00:30;19.00;99.90
59855;DHT22;45732;52.850;6.896;2022-09-09T17:02:56;19.00;99.90
59855;DHT22;45732;52.850;6.896;2022-09-09T17:05:21;18.90;99.90
59855;DHT22;45732;52.850;6.896;2022-09-09T17:07:48;18.90;99.90
59855;DHT22;45732;52.850;6.896;2022-09-09T17:10:14;18.80;99.90
59855;DHT22;45732;52.850;6.896;2022-09-09T17:12:40;18.80;99.90
59855;DHT22;45732;52.850;6.896;2022-09-09T17:15:07;18.80;99.90
59855;DHT22;45732;52.850;6.896;2022-09-09T17:17:32;18.80;99.90
59855;DHT22;45732;52.850;6.896;2022-09-09T17:19:58;18.70;99.90
59855;DHT22;45732;52.850;6.896;2022-09-09T17:22:24;18.70;99.90
59855;DHT22;45732;52.850;6.896;2022-09-09T17:24:51;18.70;99.90
59855;DHT22;45732;52.850;6.896;2022-09-09T17:27:17;18.70;99.90
59855;DHT22;45732;52.850;6.896;2022-09-09T17:29:42;18.70;99.90
59855;DHT22;45732;52.850;6.896;2022-09-09T17:32:08;18.60;99.90
59855;DHT22;45732;52.850;6.896;2022-09-09T17:34:34;18.60;99.90
59855;DHT22;45732;52.850;6.896;2022-09-09T17:37:00;18.60;99.90
59855;DHT22;45732;52.850;6.896;2022-09-09T17:39:26;18.60;99.90
59855;DHT22;45732;52.850;6.896;2022-09-09T17:41:51;18.50;99.90
59855;DHT22;45732;52.850;6.896;2022-09-09T17:44:18;18.50;99.90
59855;DHT22;45732;52.850;6.896;2022-09-09T17:46:44;18.50;99.90
59855;DHT22;45732;52.850;6.896;2022-09-09T17:49:12;18.50;99.90
59855;DHT22;45732;52.850;6.896;2022-09-09T17:51:40;18.40;99.90
59855;DHT22;45732;52.850;6.896;2022-09-09T17:54:13;18.40;99.90
59855;DHT22;45732;52.850;6.896;2022-09-09T17:56:40;18.40;99.90
59855;DHT22;45732;52.850;6.896;2022-09-09T17:59:10;18.40;99.90
59855;DHT22;45732;52.850;6.896;2022-09-09T18:01:40;18.40;99.90
59855;DHT22;45732;52.850;6.896;2022-09-09T18:04:08;18.30;99.90